Time;durP1;ratioP1;P1;durP2;ratioP2;P2;SDS_P1;SDS_P2;PMS_P1;PMS_P2;Temp;Humidity;BMP_temperature;BMP_pressure;BME280_temperature;BME280_humidity;BME280_pressure;Samples;Min_cycle;Max_cycle;Signal;HPM_P1;HPM_P2
2021/05/10 00:00:09;;;;;;;2.38;1.90;;;16.40;39.90;;;;;;5057308;28;20031;-79
2021/05/10 00:02:35;;;;;;;2.42;1.73;;;16.50;95.10;;;;;;5054627;28;20028;-77
2021/05/10 00:05:00;;;;;;;3.22;2.10;;;16.40;54.60;;;;;;5243832;23;20041;-79
2021/05/10 00:07:26;;;;;;;2.72;2.00;;;16.50;44.70;;;;;;5073762;28;20025;-79
2021/05/10 00:09:52;;;;;;;2.63;2.17;;;16.50;99.00;;;;;;5064878;28;20029;-79
2021/05/10 00:12:18;;;;;;;2.20;1.90;;;16.50;99.90;;;;;;5054951;28;20053;-79
2021/05/10 00:14:44;;;;;;;3.08;1.90;;;16.40;1.00;;;;;;5049174;28;20020;-78
2021/05/10 00:17:11;;;;;;;3.83;1.58;;;16.40;99.90;;;;;;5053965;28;20033;-77
2021/05/10 00:19:37;;;;;;;2.78;1.58;;;16.50;42.90;;;;;;5046072;28;20554;-78
2021/05/10 00:22:04;;;;;;;4.13;1.42;;;16.50;57.60;;;;;;5045354;28;20025;-79
2021/05/10 00:24:29;;;;;;;2.58;1.80;;;16.60;26.90;;;;;;5044635;28;20036;-78
2021/05/10 00:26:58;;;;;;;2.40;2.17;;;16.60;1.00;;;;;;5052003;28;20096;-79
2021/05/10 00:29:24;;;;;;;2.90;1.63;;;16.60;1.00;;;;;;5070727;28;20023;-80
2021/05/10 00:31:53;;;;;;;2.65;1.70;;;16.60;1.00;;;;;;5063849;28;20040;-78
2021/05/10 00:34:18;;;;;;;2.95;1.77;;;16.60;1.00;;;;;;5045247;28;20060;-79
2021/05/10 00:36:47;;;;;;;1.67;1.50;;;16.60;1.00;;;;;;5052458;28;20021;-79
2021/05/10 00:39:18;;;;;;;2.05;1.60;;;16.50;1.00;;;;;;5059530;28;20076;-79
2021/05/10 00:41:49;;;;;;;3.42;1.60;;;16.60;22.40;;;;;;5062918;28;20021;-79
2021/05/10 00:44:18;;;;;;;13.20;2.35;;;16.50;99.90;;;;;;5048383;28;20029;-79
2021/05/10 00:46:47;;;;;;;2.35;1.90;;;16.50;99.90;;;;;;5177186;23;20032;-79
2021/05/10 00:49:13;;;;;;;3.33;1.75;;;16.40;99.90;;;;;;5076413;28;20021;-79
2021/05/10 00:51:48;;;;;;;4.43;2.22;;;16.30;99.90;;;;;;5098104;28;20027;-78
2021/05/10 00:54:20;;;;;;;2.15;1.95;;;16.20;99.90;;;;;;5079875;28;20020;-80
2021/05/10 00:56:52;;;;;;;3.90;2.05;;;16.20;99.90;;;;;;5096742;28;20101;-80
2021/05/10 00:59:21;;;;;;;6.10;2.33;;;16.10;1.00;;;;;;5090110;28;20035;-79
2021/05/10 01:01:50;;;;;;;4.35;2.70;;;16.00;1.00;;;;;;5102060;28;20024;-79
2021/05/10 01:04:23;;;;;;;2.95;2.05;;;15.90;1.00;;;;;;5090951;28;20020;-77
2021/05/10 01:06:48;;;;;;;2.65;2.25;;;15.90;1.00;;;;;;5103639;28;20032;-80
2021/05/10 01:09:14;;;;;;;4.40;2.10;;;15.90;1.00;;;;;;5092194;28;20055;-80
2021/05/10 01:11:43;;;;;;;4.35;1.83;;;15.80;55.10;;;;;;5100930;28;20035;-78
2021/05/10 01:14:21;;;;;;;3.60;2.20;;;15.80;94.60;;;;;;5096747;28;20289;-78
2021/05/10 01:16:49;;;;;;;3.15;2.25;;;15.70;92.80;;;;;;5108855;28;20028;-79
2021/05/10 01:19:17;;;;;;;2.33;2.13;;;15.60;99.90;;;;;;5092768;28;20017;-77
2021/05/10 01:21:50;;;;;;;2.15;1.95;;;15.60;99.90;;;;;;5118276;28;20024;-79
2021/05/10 01:24:19;;;;;;;2.63;2.42;;;15.50;99.90;;;;;;5106615;28;20036;-78
2021/05/10 01:29:21;;;;;;;2.60;2.30;;;15.40;99.90;;;;;;5064131;22;20052;-79
2021/05/10 01:31:50;;;;;;;2.53;1.90;;;15.30;99.90;;;;;;5076844;28;20045;-78
2021/05/10 01:34:16;;;;;;;2.95;2.10;;;15.30;99.90;;;;;;5074793;28;20017;-76
2021/05/10 01:36:53;;;;;;;3.60;2.08;;;15.20;99.90;;;;;;5075968;28;20068;-80
2021/05/10 01:39:26;;;;;;;3.30;3.00;;;15.20;99.90;;;;;;5059947;28;20089;-78
2021/05/10 01:41:57;;;;;;;3.42;2.17;;;15.20;99.90;;;;;;5050204;28;20048;-78
2021/05/10 01:44:25;;;;;;;;;;;15.10;99.90;;;;;;5064705;28;20136;-79
2021/05/10 01:46:58;;;;;;;3.33;2.45;;;15.10;99.90;;;;;;5074257;28;20381;-77
2021/05/10 01:49:26;;;;;;;4.32;2.33;;;15.00;99.90;;;;;;5082175;28;20040;-78
2021/05/10 01:52:04;;;;;;;4.85;2.30;;;14.90;99.90;;;;;;5071856;28;20033;-78
2021/05/10 01:54:30;;;;;;;3.10;2.58;;;14.90;99.90;;;;;;5072879;28;20033;-78
2021/05/10 01:57:10;;;;;;;2.33;2.00;;;14.90;99.90;;;;;;5074768;28;20056;-78
2021/05/10 01:59:54;;;;;;;3.13;1.98;;;14.80;99.90;;;;;;5085151;28;20025;-79
2021/05/10 02:02:26;;;;;;;4.18;2.72;;;14.70;99.90;;;;;;5070791;28;20036;-78
2021/05/10 02:05:33;;;;;;;2.42;2.03;;;14.70;99.90;;;;;;5079501;28;20131;-80
2021/05/10 02:08:07;;;;;;;2.92;2.00;;;14.70;99.90;;;;;;5045312;28;20093;-78
2021/05/10 02:10:56;;;;;;;5.97;2.58;;;14.60;99.90;;;;;;5086369;28;20020;-78
2021/05/10 02:13:24;;;;;;;4.45;2.53;;;14.60;99.90;;;;;;5076285;28;20079;-79
2021/05/10 02:15:58;;;;;;;3.42;2.45;;;14.60;99.90;;;;;;5061700;28;20021;-78
2021/05/10 02:18:58;;;;;;;3.80;2.33;;;14.50;99.90;;;;;;5063689;28;20035;-79
2021/05/10 02:21:35;;;;;;;5.32;2.72;;;14.50;99.90;;;;;;5083217;28;20033;-78
2021/05/10 02:24:18;;;;;;;3.80;1.98;;;14.40;99.90;;;;;;5059559;28;20024;-78
2021/05/10 02:26:44;;;;;;;2.47;2.28;;;14.50;99.90;;;;;;5070961;28;21661;-79
2021/05/10 02:29:18;;;;;;;4.22;2.80;;;14.40;99.90;;;;;;5074440;28;20041;-79
2021/05/10 02:31:46;;;;;;;4.00;2.42;;;14.50;99.90;;;;;;5082404;28;20029;-78
2021/05/10 02:34:34;;;;;;;4.90;2.40;;;14.50;99.90;;;;;;5064811;28;20025;-78
2021/05/10 02:37:18;;;;;;;3.40;1.83;;;14.60;99.90;;;;;;5069029;28;20033;-76
2021/05/10 02:39:50;;;;;;;3.00;2.10;;;14.60;99.90;;;;;;5066714;28;20061;-78
2021/05/10 02:42:15;;;;;;;4.70;2.13;;;14.60;99.90;;;;;;5068595;28;20063;-79
2021/05/10 02:44:44;;;;;;;4.28;2.95;;;14.60;99.90;;;;;;5069973;28;20025;-77
2021/05/10 02:47:10;;;;;;;3.30;2.28;;;14.60;99.90;;;;;;5066989;28;20025;-78
2021/05/10 02:49:44;;;;;;;5.15;2.75;;;14.70;99.90;;;;;;5198036;22;20050;-79
2021/05/10 02:52:25;;;;;;;3.35;2.17;;;14.70;99.90;;;;;;5031816;28;20022;-77
2021/05/10 02:55:02;;;;;;;2.83;2.13;;;14.60;99.90;;;;;;5026958;28;20020;-79
2021/05/10 02:57:40;;;;;;;2.15;1.95;;;14.50;99.90;;;;;;5026054;28;20129;-80
2021/05/10 03:00:22;;;;;;;3.55;2.10;;;14.50;99.90;;;;;;5023867;28;20049;-77
2021/05/10 03:02:56;;;;;;;1.90;1.70;;;14.50;99.90;;;;;;5027430;28;20293;-79
2021/05/10 03:05:30;;;;;;;2.40;2.20;;;14.50;99.90;;;;;;5007446;28;20038;-79
2021/05/10 03:07:57;;;;;;;5.68;2.45;;;14.40;99.90;;;;;;5017963;28;20025;-78
2021/05/10 03:10:39;;;;;;;2.42;2.00;;;14.40;99.90;;;;;;5220699;22;20040;-77
2021/05/10 03:13:21;;;;;;;3.45;2.10;;;14.40;99.90;;;;;;5076630;28;20048;-77
2021/05/10 03:15:53;;;;;;;4.35;2.25;;;14.40;99.90;;;;;;5075556;28;20025;-78
2021/05/10 03:18:25;;;;;;;3.63;2.13;;;14.40;99.90;;;;;;5064779;28;20021;-78
2021/05/10 03:21:00;;;;;;;4.10;2.40;;;14.40;99.90;;;;;;5073940;28;20058;-77
2021/05/10 03:23:31;;;;;;;4.35;2.03;;;14.40;99.90;;;;;;5087867;28;20033;-80
2021/05/10 03:26:09;;;;;;;2.60;1.90;;;14.30;99.90;;;;;;5062032;28;20163;-80
2021/05/10 03:28:44;;;;;;;2.17;1.98;;;14.30;99.90;;;;;;5066204;28;20021;-80
2021/05/10 03:31:39;;;;;;;5.93;2.25;;;14.30;99.90;;;;;;5209468;22;20016;-77
2021/05/10 03:34:08;;;;;;;2.47;2.17;;;14.20;99.90;;;;;;5039041;28;20021;-78
2021/05/10 03:36:43;;;;;;;2.55;1.70;;;14.10;99.90;;;;;;5033883;28;20026;-77
2021/05/10 03:39:14;;;;;;;5.18;2.25;;;14.20;99.90;;;;;;5035897;28;20034;-77
2021/05/10 03:41:45;;;;;;;3.20;2.00;;;14.30;99.90;;;;;;5033793;28;20049;-77
2021/05/10 03:44:20;;;;;;;3.83;1.88;;;14.40;99.90;;;;;;5031168;28;20026;-78
2021/05/10 03:46:59;;;;;;;2.85;1.80;;;14.50;99.90;;;;;;5017706;28;20038;-80
2021/05/10 03:49:30;;;;;;;3.75;1.90;;;14.50;99.90;;;;;;5017185;28;20046;-80
2021/05/10 03:52:06;;;;;;;2.60;1.92;;;14.60;99.90;;;;;;5028965;28;20026;-79
2021/05/10 03:54:41;;;;;;;2.55;1.80;;;14.60;99.90;;;;;;5014015;28;20026;-80
2021/05/10 03:57:18;;;;;;;4.70;3.05;;;14.60;99.90;;;;;;5021056;28;20049;-79
2021/05/10 03:59:57;;;;;;;3.78;2.40;;;14.70;99.90;;;;;;5022593;28;20096;-80
2021/05/10 04:02:27;;;;;;;4.53;2.17;;;14.80;99.90;;;;;;5029580;28;20492;-79
2021/05/10 04:05:07;;;;;;;5.25;2.22;;;14.90;99.90;;;;;;5014475;28;20109;-78
2021/05/10 04:15:32;;;;;;;6.00;2.15;;;15.10;99.90;;;;;;5021205;28;20673;-79
2021/05/10 04:17:58;;;;;;;4.65;2.63;;;15.30;99.90;;;;;;5037998;28;20034;-79
2021/05/10 04:20:23;;;;;;;4.18;1.98;;;15.40;99.90;;;;;;5021583;28;20026;-80
2021/05/10 04:22:52;;;;;;;9.77;2.85;;;15.70;99.90;;;;;;5016045;28;20030;-78
2021/05/10 04:25:18;;;;;;;5.10;2.47;;;15.70;99.90;;;;;;5003970;28;20469;-79
2021/05/10 04:27:52;;;;;;;2.65;2.33;;;15.60;99.90;;;;;;5025706;28;20030;-78
2021/05/10 04:30:29;;;;;;;6.30;2.65;;;15.60;99.90;;;;;;5039338;28;20063;-78
2021/05/10 04:33:22;;;;;;;4.47;2.65;;;15.50;99.90;;;;;;5022604;28;20050;-78
2021/05/10 04:35:52;;;;;;;7.32;2.60;;;15.50;99.90;;;;;;5031498;28;20076;-80
2021/05/10 04:38:21;;;;;;;4.95;2.70;;;15.50;99.90;;;;;;5029911;28;20101;-78
2021/05/10 04:41:08;;;;;;;3.22;2.47;;;15.60;99.90;;;;;;5030107;28;20033;-79
2021/05/10 04:43:53;;;;;;;11.45;2.50;;;15.60;99.90;;;;;;5023850;28;20038;-77
2021/05/10 04:46:19;;;;;;;8.57;3.00;;;15.80;99.90;;;;;;5018284;28;20029;-79
2021/05/10 04:48:50;;;;;;;5.35;3.22;;;15.90;99.90;;;;;;5028111;28;20030;-78
2021/05/10 04:51:18;;;;;;;;;;;15.90;99.90;;;;;;5022030;28;20478;-80
2021/05/10 04:53:57;;;;;;;4.32;2.55;;;16.00;99.90;;;;;;5020649;28;19917;-78
2021/05/10 04:57:05;;;;;;;10.60;2.55;;;16.10;99.90;;;;;;5019637;28;20208;-81
2021/05/10 04:59:39;;;;;;;5.53;2.75;;;16.20;99.90;;;;;;5018573;28;20052;-77
2021/05/10 05:02:14;;;;;;;9.57;2.97;;;16.30;99.90;;;;;;5017177;28;20037;-79
2021/05/10 05:04:43;;;;;;;6.30;2.75;;;16.50;99.90;;;;;;5012829;28;20026;-78
2021/05/10 05:07:09;;;;;;;12.43;4.97;;;16.80;76.90;;;;;;5036774;28;20022;-78
2021/05/10 05:09:37;;;;;;;5.90;3.20;;;17.00;22.30;;;;;;5016305;28;20018;-79
2021/05/10 05:12:10;;;;;;;13.10;3.50;;;17.10;1.00;;;;;;5015129;28;20064;-79
2021/05/10 05:14:41;;;;;;;10.07;3.05;;;17.10;1.00;;;;;;5013057;28;20037;-78
2021/05/10 05:17:20;;;;;;;11.88;3.35;;;16.90;1.00;;;;;;5018322;28;20112;-78
2021/05/10 05:19:51;;;;;;;6.10;3.47;;;16.90;1.00;;;;;;5017931;28;20088;-79
2021/05/10 05:22:20;;;;;;;7.05;3.45;;;16.90;19.10;;;;;;5018427;28;20045;-78
2021/05/10 05:24:57;;;;;;;8.55;3.05;;;17.10;1.00;;;;;;5022769;28;20401;-79
2021/05/10 05:27:26;;;;;;;11.50;3.97;;;17.20;1.00;;;;;;5033321;28;20033;-78
2021/05/10 05:29:55;;;;;;;13.57;4.78;;;17.00;6.90;;;;;;5035137;28;20010;-78
2021/05/10 05:32:32;;;;;;;10.40;3.95;;;17.00;6.70;;;;;;5034236;28;20022;-77
2021/05/10 05:35:01;;;;;;;6.00;3.30;;;17.00;1.00;;;;;;5033445;28;20049;-77
2021/05/10 05:37:27;;;;;;;7.55;3.67;;;17.00;1.00;;;;;;5033712;28;20028;-77
2021/05/10 05:40:06;;;;;;;9.57;3.80;;;17.10;1.00;;;;;;5032040;28;20030;-77
2021/05/10 05:42:41;;;;;;;11.70;3.97;;;17.30;1.00;;;;;;5020982;28;20085;-79
2021/05/10 05:45:12;;;;;;;11.10;4.18;;;17.30;1.00;;;;;;5024699;28;20034;-79
2021/05/10 05:47:37;;;;;;;11.73;4.57;;;17.60;99.90;;;;;;5023692;28;20022;-78
2021/05/10 05:50:03;;;;;;;9.70;3.60;;;17.70;99.90;;;;;;5024286;28;20787;-78
2021/05/10 05:52:29;;;;;;;7.10;3.40;;;17.70;99.90;;;;;;5019142;28;20034;-78
2021/05/10 05:54:55;;;;;;;7.03;3.50;;;17.90;99.90;;;;;;5014687;28;20052;-78
2021/05/10 05:57:20;;;;;;;11.77;3.75;;;18.10;99.90;;;;;;5042776;22;20041;-80
2021/05/10 05:59:47;;;;;;;8.63;3.38;;;18.10;99.90;;;;;;5051027;28;20026;-80
2021/05/10 06:02:12;;;;;;;6.20;3.22;;;18.20;18.40;;;;;;5051225;28;20033;-78
2021/05/10 06:04:38;;;;;;;7.57;2.70;;;18.50;99.90;;;;;;5054636;28;20457;-79
2021/05/10 06:07:03;;;;;;;12.18;3.63;;;18.70;1.00;;;;;;5050284;28;20036;-79
2021/05/10 06:09:29;;;;;;;6.85;2.60;;;18.70;11.30;;;;;;5046816;28;20022;-80
2021/05/10 06:11:55;;;;;;;6.78;3.38;;;18.50;81.40;;;;;;5040114;28;20036;-79
2021/05/10 06:14:21;;;;;;;8.40;3.30;;;18.40;92.90;;;;;;5052805;28;20021;-79
2021/05/10 06:16:47;;;;;;;5.80;3.00;;;18.40;99.90;;;;;;5061929;28;20037;-80
2021/05/10 06:19:13;;;;;;;7.40;2.80;;;18.20;99.90;;;;;;5068370;28;20036;-81
2021/05/10 06:21:40;;;;;;;6.85;3.33;;;18.20;99.90;;;;;;5046733;28;20029;-80
2021/05/10 06:24:06;;;;;;;14.55;3.55;;;18.20;99.90;;;;;;5046520;28;20025;-80
2021/05/10 06:26:31;;;;;;;8.32;2.97;;;18.00;1.00;;;;;;5047542;28;20030;-79
2021/05/10 06:28:57;;;;;;;5.00;2.80;;;18.10;1.00;;;;;;5049054;28;20082;-79
2021/05/10 06:31:23;;;;;;;10.35;3.22;;;18.30;1.00;;;;;;5047490;28;20036;-80
2021/05/10 06:33:48;;;;;;;5.10;2.40;;;18.60;99.90;;;;;;5045021;28;20031;-80
2021/05/10 06:36:14;;;;;;;6.57;2.33;;;18.90;99.90;;;;;;5042085;28;20022;-80
2021/05/10 06:38:39;;;;;;;8.40;2.17;;;19.30;99.90;;;;;;5041115;28;20040;-81
2021/05/10 06:41:05;;;;;;;8.68;2.15;;;19.50;97.80;;;;;;5031793;28;20113;-80
2021/05/10 06:43:31;;;;;;;6.28;2.50;;;19.80;99.90;;;;;;5043471;28;20108;-80
2021/05/10 06:45:57;;;;;;;9.07;2.95;;;20.20;1.00;;;;;;5059331;28;20052;-81
2021/05/10 06:48:30;;;;;;;3.55;2.30;;;20.90;1.00;;;;;;5057912;28;20029;-81
2021/05/10 06:50:57;;;;;;;6.75;2.22;;;21.20;1.00;;;;;;5058617;28;20032;-81
2021/05/10 06:53:22;;;;;;;7.38;2.50;;;21.40;99.90;;;;;;5055921;28;20109;-81
2021/05/10 06:55:51;;;;;;;5.28;2.97;;;21.40;99.90;;;;;;5059511;28;20115;-79
2021/05/10 06:58:16;;;;;;;4.63;2.85;;;21.40;1.00;;;;;;5048615;28;20029;-80
2021/05/10 07:00:42;;;;;;;17.35;2.85;;;21.40;13.00;;;;;;5043911;28;20056;-79
2021/05/10 07:03:08;;;;;;;5.47;2.38;;;21.20;26.50;;;;;;5045934;28;20035;-80
2021/05/10 07:05:34;;;;;;;7.10;2.10;;;21.40;1.00;;;;;;5047312;28;20029;-80
2021/05/10 07:08:10;;;;;;;4.50;2.05;;;21.10;71.30;;;;;;5046526;28;20025;-77
2021/05/10 07:10:36;;;;;;;8.65;2.65;;;21.50;1.00;;;;;;5057418;28;20024;-77
2021/05/10 07:13:02;;;;;;;9.43;3.00;;;21.40;1.00;;;;;;5047783;28;20096;-77
2021/05/10 07:15:28;;;;;;;8.30;2.30;;;21.40;1.00;;;;;;5038819;28;20040;-77
2021/05/10 07:18:05;;;;;;;10.20;2.72;;;21.10;25.30;;;;;;5039063;28;20052;-77
2021/05/10 07:20:30;;;;;;;5.60;2.85;;;21.00;69.10;;;;;;5046057;28;20036;-77
2021/05/10 07:22:56;;;;;;;4.47;1.80;;;21.20;63.70;;;;;;5054359;28;20025;-77
2021/05/10 07:25:22;;;;;;;4.20;2.28;;;21.50;1.00;;;;;;5039218;28;20044;-77
2021/05/10 07:27:48;;;;;;;4.80;2.30;;;21.70;99.90;;;;;;5037585;28;20366;-77
2021/05/10 07:30:15;;;;;;;12.43;2.80;;;22.70;99.90;;;;;;5038066;28;20021;-77
2021/05/10 07:32:41;;;;;;;8.45;2.85;;;23.20;93.90;;;;;;5037969;28;20022;-77
2021/05/10 07:35:06;;;;;;;2.75;1.30;;;23.10;9.40;;;;;;5044971;28;20075;-78
2021/05/10 07:37:32;;;;;;;1.98;1.30;;;23.30;1.00;;;;;;5052771;28;20058;-78
2021/05/10 07:39:58;;;;;;;5.45;2.03;;;22.70;1.00;;;;;;5050922;28;20511;-78
2021/05/10 07:42:23;;;;;;;2.67;1.25;;;22.80;1.00;;;;;;5043377;28;20039;-76
2021/05/10 07:44:49;;;;;;;4.30;1.83;;;22.70;1.00;;;;;;5044950;28;20108;-77
2021/05/10 07:47:16;;;;;;;4.25;1.35;;;22.20;15.90;;;;;;5048086;28;20104;-78
2021/05/10 07:49:41;;;;;;;1.75;1.48;;;21.80;99.90;;;;;;5053991;28;20020;-77
2021/05/10 07:52:08;;;;;;;2.05;1.30;;;21.60;99.90;;;;;;5040843;28;20021;-78
2021/05/10 07:54:34;;;;;;;5.07;1.52;;;21.90;99.90;;;;;;5036699;28;20026;-76
2021/05/10 07:56:59;;;;;;;6.88;1.42;;;22.00;99.90;;;;;;5036062;28;20041;-77
2021/05/10 07:59:25;;;;;;;2.33;1.42;;;22.00;99.90;;;;;;5039627;28;20045;-76
2021/05/10 08:01:54;;;;;;;5.72;1.48;;;22.10;99.90;;;;;;5038548;28;20021;-77
2021/05/10 08:04:20;;;;;;;3.83;1.13;;;22.40;99.90;;;;;;5036767;28;20037;-77
2021/05/10 08:06:46;;;;;;;6.72;1.48;;;22.60;99.90;;;;;;5035511;28;20048;-76
2021/05/10 08:09:11;;;;;;;2.63;1.17;;;22.80;99.90;;;;;;5038297;28;20448;-77
2021/05/10 08:11:39;;;;;;;1.55;1.38;;;22.40;99.90;;;;;;5046599;28;20025;-78
2021/05/10 08:14:05;;;;;;;2.72;1.10;;;22.10;99.90;;;;;;5054748;28;20029;-80
2021/05/10 08:16:31;;;;;;;3.33;1.05;;;22.00;99.90;;;;;;5058561;28;20033;-79
2021/05/10 08:18:56;;;;;;;3.17;1.63;;;21.80;99.90;;;;;;5040409;28;20021;-79
2021/05/10 08:21:22;;;;;;;2.70;1.40;;;21.90;99.90;;;;;;5051549;28;20511;-80
2021/05/10 08:23:48;;;;;;;4.65;1.52;;;21.90;1.00;;;;;;5052211;28;20026;-79
2021/05/10 08:26:13;;;;;;;1.45;1.13;;;22.20;99.90;;;;;;5047438;28;20041;-80
2021/05/10 08:28:39;;;;;;;5.68;1.33;;;22.70;99.90;;;;;;5046056;28;20053;-80
2021/05/10 08:31:04;;;;;;;3.33;1.67;;;23.10;99.90;;;;;;5050941;28;20029;-80
2021/05/10 08:33:30;;;;;;;2.67;1.30;;;22.90;99.90;;;;;;5050993;28;20025;-78
2021/05/10 08:35:56;;;;;;;3.72;1.48;;;22.90;99.90;;;;;;5054009;28;20040;-80
2021/05/10 08:38:22;;;;;;;7.70;1.20;;;22.50;99.90;;;;;;5049696;28;20080;-80
2021/05/10 08:40:50;;;;;;;2.13;0.85;;;22.50;99.90;;;;;;5056891;28;20053;-80
2021/05/10 08:43:21;;;;;;;4.22;1.77;;;22.60;99.90;;;;;;5051654;28;20025;-80
2021/05/10 08:45:53;;;;;;;2.60;1.00;;;22.40;99.90;;;;;;5058625;28;20029;-79
2021/05/10 08:48:20;;;;;;;7.07;1.30;;;22.10;99.90;;;;;;5059120;28;20033;-80
2021/05/10 08:50:45;;;;;;;3.55;1.85;;;21.70;1.00;;;;;;5056599;28;20020;-80
2021/05/10 08:53:12;;;;;;;3.15;1.20;;;21.50;99.90;;;;;;5056228;28;20040;-78
2021/05/10 08:55:39;;;;;;;1.60;1.40;;;21.30;99.90;;;;;;5057104;28;20029;-81
2021/05/10 08:58:07;;;;;;;2.03;1.10;;;21.30;99.90;;;;;;5055218;28;20029;-81
2021/05/10 09:00:33;;;;;;;1.77;1.60;;;21.30;99.90;;;;;;5066321;28;20025;-80
2021/05/10 09:03:10;;;;;;;2.95;1.50;;;21.50;1.00;;;;;;5054472;28;20057;-81
2021/05/10 09:05:50;;;;;;;2.97;1.15;;;21.70;99.90;;;;;;5054516;28;20037;-81
2021/05/10 09:08:16;;;;;;;2.83;1.58;;;21.60;99.90;;;;;;5068569;28;20033;-79
2021/05/10 09:11:12;;;;;;;3.42;1.48;;;21.50;99.90;;;;;;5060361;28;20048;-80
2021/05/10 09:13:45;;;;;;;3.25;1.77;;;21.30;1.00;;;;;;5045873;28;20029;-80
2021/05/10 09:16:13;;;;;;;3.83;1.30;;;21.20;36.00;;;;;;5059370;28;20034;-80
2021/05/10 09:18:42;;;;;;;5.43;1.40;;;21.40;1.00;;;;;;5063068;28;20025;-79
2021/05/10 09:21:13;;;;;;;2.42;1.50;;;21.50;1.00;;;;;;5058366;28;20032;-79
2021/05/10 09:23:43;;;;;;;3.80;1.63;;;21.40;99.90;;;;;;5063547;28;20041;-81
2021/05/10 09:26:11;;;;;;;1.48;1.23;;;21.50;99.90;;;;;;5053425;28;20025;-80
2021/05/10 09:28:44;;;;;;;5.65;1.80;;;21.60;99.90;;;;;;5058458;28;20089;-80
2021/05/10 09:31:13;;;;;;;3.97;1.85;;;21.30;99.90;;;;;;5065409;28;20085;-78
2021/05/10 09:33:46;;;;;;;2.25;1.20;;;21.30;1.00;;;;;;5054629;28;20104;-80
2021/05/10 09:36:38;;;;;;;4.03;1.27;;;21.40;99.90;;;;;;5055493;28;20016;-77
2021/05/10 09:39:07;;;;;;;2.60;1.30;;;21.50;99.90;;;;;;5053668;28;20021;-79
2021/05/10 09:41:34;;;;;;;6.78;2.40;;;21.50;99.90;;;;;;5055320;28;20024;-78
2021/05/10 09:44:05;;;;;;;5.60;1.10;;;21.90;99.90;;;;;;5060961;28;20048;-78
2021/05/10 09:46:39;;;;;;;2.75;1.30;;;21.70;93.30;;;;;;5054519;28;20021;-79
2021/05/10 09:49:05;;;;;;;3.78;1.38;;;21.70;96.20;;;;;;5054095;28;20040;-79
2021/05/10 09:51:30;;;;;;;4.97;1.33;;;22.00;1.00;;;;;;5054561;28;20820;-79
2021/05/10 09:53:57;;;;;;;1.58;1.00;;;22.00;99.90;;;;;;5054247;28;20029;-79
2021/05/10 09:56:32;;;;;;;2.53;0.80;;;22.00;99.90;;;;;;5053984;28;20037;-80
2021/05/10 09:59:00;;;;;;;2.25;1.10;;;21.90;99.90;;;;;;5057281;28;20037;-81
2021/05/10 10:01:37;;;;;;;5.43;1.17;;;21.80;99.90;;;;;;5050575;28;20116;-80
2021/05/10 10:04:03;;;;;;;3.13;0.60;;;21.50;99.90;;;;;;5053112;28;20049;-79
2021/05/10 10:06:28;;;;;;;7.45;0.98;;;21.50;99.90;;;;;;5051761;28;20017;-79
2021/05/10 10:08:55;;;;;;;3.72;0.70;;;21.70;99.90;;;;;;5058604;28;20029;-79
2021/05/10 10:11:24;;;;;;;5.45;0.95;;;21.80;36.90;;;;;;5053816;28;20105;-78
2021/05/10 10:13:51;;;;;;;0.68;0.40;;;21.60;1.00;;;;;;5056344;28;20027;-78
2021/05/10 10:16:20;;;;;;;1.90;0.70;;;21.30;1.00;;;;;;5051593;28;20091;-80
2021/05/10 10:18:46;;;;;;;1.55;0.57;;;21.00;22.20;;;;;;5055308;28;20044;-80
2021/05/10 10:21:14;;;;;;;3.70;0.70;;;20.80;47.00;;;;;;5051397;28;20501;-80
2021/05/10 10:23:41;;;;;;;1.02;0.60;;;20.90;99.90;;;;;;5050938;28;20029;-79
2021/05/10 10:26:11;;;;;;;1.42;0.70;;;20.90;71.70;;;;;;5053474;28;20029;-80
2021/05/10 10:28:38;;;;;;;0.73;0.47;;;20.80;87.20;;;;;;5054055;28;20084;-80
2021/05/10 10:31:13;;;;;;;2.95;0.70;;;20.90;99.90;;;;;;5046365;28;20030;-74
2021/05/10 10:33:44;;;;;;;3.80;0.77;;;20.90;99.90;;;;;;5037281;28;20025;-74
2021/05/10 10:36:28;;;;;;;1.08;0.43;;;20.80;99.90;;;;;;5032506;28;20032;-74
2021/05/10 10:39:22;;;;;;;1.10;0.40;;;20.70;99.90;;;;;;5023275;28;20026;-73
2021/05/10 10:41:57;;;;;;;2.42;0.52;;;20.90;99.90;;;;;;5033237;28;20489;-74
2021/05/10 10:44:41;;;;;;;1.90;0.45;;;20.90;99.90;;;;;;5037582;28;20044;-75
2021/05/10 10:47:10;;;;;;;4.88;0.70;;;20.90;99.90;;;;;;5028529;28;20558;-74
2021/05/10 10:49:41;;;;;;;1.02;0.50;;;20.70;1.00;;;;;;5036432;28;20021;-73
2021/05/10 10:52:20;;;;;;;5.70;0.70;;;21.00;1.00;;;;;;5043774;28;20040;-72
2021/05/10 10:55:07;;;;;;;0.98;0.50;;;20.90;99.90;;;;;;5047221;28;20033;-73
2021/05/10 10:57:33;;;;;;;1.75;1.00;;;20.90;1.00;;;;;;5035956;28;20069;-74
2021/05/10 10:59:59;;;;;;;2.03;1.00;;;20.80;1.00;;;;;;5040488;28;20030;-74
2021/05/10 11:02:27;;;;;;;0.98;0.50;;;20.80;1.00;;;;;;5043233;28;20531;-73
2021/05/10 11:05:10;;;;;;;1.00;0.47;;;20.80;1.00;;;;;;5025612;28;20060;-76
2021/05/10 11:07:57;;;;;;;1.90;0.75;;;20.90;1.00;;;;;;5034562;28;20455;-74
2021/05/10 11:10:43;;;;;;;4.78;0.70;;;21.30;1.00;;;;;;5037683;28;20492;-73
2021/05/10 11:13:29;;;;;;;1.05;0.70;;;21.10;99.90;;;;;;5050224;28;20057;-74
2021/05/10 11:16:04;;;;;;;0.77;0.70;;;21.10;1.00;;;;;;5054217;28;20037;-73
2021/05/10 11:18:43;;;;;;;1.85;1.05;;;21.30;99.90;;;;;;5056077;28;20028;-73
2021/05/10 11:21:29;;;;;;;3.42;0.93;;;21.10;1.00;;;;;;5038185;28;20481;-74
2021/05/10 11:23:56;;;;;;;2.65;0.70;;;20.90;1.00;;;;;;5050854;28;20037;-73
2021/05/10 11:26:50;;;;;;;1.35;0.60;;;20.80;16.90;;;;;;5046878;28;20072;-73
2021/05/10 11:29:25;;;;;;;4.03;0.63;;;20.60;1.00;;;;;;5051377;28;20024;-74
2021/05/10 11:31:51;;;;;;;0.90;0.40;;;20.50;99.90;;;;;;5041870;28;20112;-74
2021/05/10 11:34:36;;;;;;;4.05;0.80;;;20.50;99.90;;;;;;5035621;28;20388;-75
2021/05/10 11:37:02;;;;;;;1.38;0.52;;;20.60;99.90;;;;;;5033080;28;20028;-74
2021/05/10 11:39:30;;;;;;;1.13;0.52;;;20.50;99.90;;;;;;5034607;28;20021;-74
2021/05/10 11:42:01;;;;;;;0.77;0.40;;;20.40;99.90;;;;;;5038597;28;20028;-74
2021/05/10 11:44:30;;;;;;;2.40;0.80;;;20.40;99.90;;;;;;5030548;28;20026;-75
2021/05/10 11:46:57;;;;;;;2.95;0.50;;;20.30;99.90;;;;;;5033827;28;20029;-74
2021/05/10 11:49:46;;;;;;;2.50;0.60;;;20.10;99.90;;;;;;5039825;28;20106;-75
2021/05/10 11:52:20;;;;;;;2.50;0.70;;;20.00;99.90;;;;;;5045850;28;20033;-75
2021/05/10 11:54:51;;;;;;;6.57;0.60;;;20.00;99.90;;;;;;5042362;28;20026;-74
2021/05/10 11:57:22;;;;;;;1.45;0.50;;;20.20;99.90;;;;;;5041675;28;20032;-74
2021/05/10 11:59:50;;;;;;;0.65;0.40;;;20.10;99.90;;;;;;5044926;28;20021;-74
2021/05/10 12:02:17;;;;;;;2.35;0.50;;;20.10;99.90;;;;;;5043364;28;20034;-74
2021/05/10 12:04:51;;;;;;;3.00;0.65;;;19.90;99.90;;;;;;5042134;28;20033;-74
2021/05/10 12:07:19;;;;;;;1.38;0.43;;;19.90;99.90;;;;;;5045764;28;20053;-74
2021/05/10 12:09:53;;;;;;;0.77;0.60;;;20.00;99.90;;;;;;5041453;28;20026;-74
2021/05/10 12:12:18;;;;;;;0.90;0.43;;;19.90;99.90;;;;;;5034470;28;20040;-76
2021/05/10 12:14:47;;;;;;;0.80;0.50;;;19.90;1.00;;;;;;5035980;28;20485;-75
2021/05/10 12:17:18;;;;;;;1.15;0.50;;;20.00;1.00;;;;;;5034031;28;20501;-76
2021/05/10 12:19:51;;;;;;;1.15;0.60;;;20.20;99.90;;;;;;5036193;28;20110;-75
2021/05/10 12:22:25;;;;;;;0.50;0.32;;;19.90;99.90;;;;;;5047636;28;20036;-75
2021/05/10 12:24:57;;;;;;;0.63;0.55;;;19.90;99.90;;;;;;5044729;28;20040;-76
2021/05/10 12:27:25;;;;;;;1.42;0.40;;;19.80;76.50;;;;;;5046231;28;20111;-76
2021/05/10 12:29:50;;;;;;;2.03;0.40;;;19.80;56.90;;;;;;5047072;28;20013;-76
2021/05/10 12:32:16;;;;;;;1.17;0.40;;;19.60;83.10;;;;;;5038566;28;20025;-75
2021/05/10 12:34:42;;;;;;;4.85;0.63;;;19.60;45.50;;;;;;5053812;28;20033;-75
2021/05/10 12:37:08;;;;;;;2.65;0.50;;;19.60;13.00;;;;;;5041498;28;20048;-74
2021/05/10 12:39:34;;;;;;;1.50;0.30;;;19.60;1.00;;;;;;5045279;28;20024;-74
2021/05/10 12:42:18;;;;;;;2.10;0.50;;;19.70;1.00;;;;;;5042972;28;20029;-76
2021/05/10 12:44:56;;;;;;;1.35;0.30;;;19.60;26.30;;;;;;5040961;28;20454;-75
2021/05/10 12:47:41;;;;;;;0.55;0.30;;;19.70;30.00;;;;;;5041672;28;20512;-75
2021/05/10 12:50:09;;;;;;;0.75;0.30;;;19.50;1.00;;;;;;5035217;28;20021;-75
2021/05/10 12:52:51;;;;;;;2.55;0.30;;;19.50;1.00;;;;;;5043932;28;20056;-77
2021/05/10 12:55:22;;;;;;;2.80;0.95;;;19.50;1.00;;;;;;5045099;28;20029;-76
2021/05/10 12:57:50;;;;;;;1.33;0.47;;;19.60;1.00;;;;;;5041911;28;20473;-76
2021/05/10 13:00:46;;;;;;;0.80;0.30;;;19.70;1.00;;;;;;5036186;28;20493;-75
2021/05/10 13:03:31;;;;;;;0.70;0.20;;;19.90;1.00;;;;;;5024561;28;20073;-75
2021/05/10 13:05:57;;;;;;;1.05;0.47;;;19.60;1.00;;;;;;5037635;28;20033;-76
2021/05/10 13:09:02;;;;;;;0.28;0.20;;;19.80;1.00;;;;;;5045311;28;20036;-75
2021/05/10 13:11:52;;;;;;;0.40;0.40;;;19.50;1.00;;;;;;4949758;28;20046;-74
2021/05/10 13:17:24;;;;;;;0.77;0.25;;;19.50;1.00;;;;;;5008668;28;20377;-75
2021/05/10 13:20:26;;;;;;;0.52;0.30;;;19.50;1.00;;;;;;5031308;28;20064;-76
2021/05/10 13:34:03;;;;;;;0.40;0.25;;;19.50;1.00;;;;;;5034434;28;20087;-74
2021/05/10 13:36:32;;;;;;;0.30;0.20;;;19.40;1.00;;;;;;5035986;28;20030;-75